NCAR-RAP Real-Time Weather Data

Output produced by METARs form (20 February 2019  18:01 UTC)
found at http://weather.rap.ucar.edu/surface/
 
KRDU 201751Z 03005KT 1 1/2SM -RA BR BKN006 OVC030 02/02 A3029 RMK AO2 SFC VIS 3 SLP258 P0004 60025 T00220022 10028 20000 56042
KRDU 201651Z 08007KT 1 1/2SM -RA BR BKN005 OVC014 02/01 A3033 RMK AO2 SFC VIS 3 DZE28RAB28 SLP275 P0005 T00170011
KRDU 201551Z 07008KT 1 1/2SM -DZ BR BKN006 OVC055 01/01 A3035 RMK AO2 SFC VIS 4 RAE41DZB50 SLP281 P0002 T00110006
KRDU 201451Z 03005KT 1 1/2SM -RA BR BKN006 OVC012 01/00 A3041 RMK AO2 SFC VIS 3 SLP300 P0010 60014 T00060000 53003
KRDU 201351Z 04010KT 1 1/2SM -RA BR BKN005 OVC015 00/M01 A3040 RMK AO2 SLP298 P0004 T00001006
KRDU 201319Z 05010KT 1 1/2SM -RA BR BKN006 OVC019 00/M01 A3040 RMK AO2 SFC VIS 1 3/4 P0001 T00001006
KRDU 201251Z 06006KT 1 1/2SM -RA BR BKN012 OVC019 00/M01 A3040 RMK AO2 SFC VIS 2 RAB35 SLP298 P0000 T00001011
KRDU 201247Z 05008KT 1 1/2SM -RA BR SCT014 OVC020 00/M01 A3040 RMK AO2 SFC VIS 2 RAB35 P0000
KRDU 201242Z 05010KT 2SM -RA BR SCT014 OVC020 01/M01 A3040 RMK AO2 RAB35 P0000 T00061011
KRDU 201151Z 08010KT 10SM FEW008 BKN019 OVC050 01/M01 A3038 RMK AO2 SLP289 60000 70025 T00061011 10017 20006 56028
KRDU 201051Z 07010KT 10SM FEW008 BKN028 OVC050 01/M01 A3040 RMK AO2 SLP298 T00111006
KRDU 200951Z 05006KT 10SM FEW008 SCT032 OVC046 01/M01 A3042 RMK AO2 SLP303 T00111006
KRDU 200851Z VRB05KT 10SM FEW008 BKN039 OVC070 01/M01 A3046 RMK AO2 SLP317 60000 T00111006 56025
KRDU 200828Z 07008KT 10SM FEW008 BKN039 OVC070 01/M01 A3047 RMK AO2 T00111006
KRDU 200751Z 11009G15KT 10SM FEW005 BKN013 OVC046 02/00 A3048 RMK AO2 SLP323 T00170000
KRDU 200651Z 09009KT 10SM BKN008 OVC080 02/01 A3048 RMK AO2 RAE32 SLP325 P0000 T00170006
KRDU 200551Z 09006KT 8SM -RA BKN007 BKN050 OVC110 02/01 A3053 RMK AO2 RAE19B33 SLP342 P0000 60025 T00170011 10056 20017 58014
KRDU 200519Z 09005KT 9SM BKN007 BKN055 OVC110 02/01 A3056 RMK AO2 RAE19 P0000 T00220011
KRDU 200451Z 07006KT 6SM -RA BR SCT006 SCT065 OVC110 02/01 A3054 RMK AO2 SLP345 P0001 T00170011 400720006
KRDU 200412Z 04005KT 6SM -RA BR SCT007 BKN060 OVC075 02/01 A3057 RMK AO2 P0000 T00170011
KRDU 200351Z 06004KT 6SM -RA BR FEW015 BKN060 OVC075 02/01 A3057 RMK AO2 SLP354 P0004 T00170011
KRDU 200251Z 10003KT 6SM -RA BR FEW055 OVC075 02/01 A3057 RMK AO2 PLE45 SLP356 P0011 60020 T00220011 55006
KRDU 200246Z 10004KT 6SM -RA BR FEW055 OVC075 02/01 A3057 RMK AO2 PLE45 P0010
KRDU 200239Z 10006KT 7SM -RAPL FEW045 SCT060 OVC070 02/01 A3057 RMK AO2 P0009 T00220006
KRDU 200151Z 12006KT 6SM RAPL BR FEW045 SCT060 OVC075 02/01 A3056 RMK AO2 RAB07PLB07 SLP350 P0009 T00220006
KRDU 200108Z 10008KT 10SM -RAPL FEW045 OVC070 04/M01 A3056 RMK AO2 RAB07PLB07 PRESFR P0000 T00441006
KRDU 200051Z 03003KT 10SM FEW047 BKN065 OVC130 05/M01 A3059 RMK AO2 RAB21E49PLB30E49 SLP362 P0000 T00501006
KRDU 200031Z 10007KT 8SM -RAPL FEW047 BKN065 OVC130 05/M02 A3057 RMK AO2 RAB21PLB30 P0000 T00501017
KRDU 192351Z 13004KT 10SM BKN085 OVC130 06/M02 A3057 RMK AO2 SLP353 T00561017 10067 20056 53014
KRDU 192251Z 13005KT 10SM BKN100 OVC130 06/M02 A3055 RMK AO2 SLP347 T00561022
KRDU 192151Z 06005KT 10SM OVC120 06/M02 A3054 RMK AO2 SLP346 T00561017
KRDU 192051Z 05006KT 10SM OVC120 06/M02 A3053 RMK AO2 SLP339 T00611022 55005